Time;durP1;ratioP1;P1;durP2;ratioP2;P2;SDS_P1;SDS_P2;PMS_P1;PMS_P2;Temp;Humidity;BMP_temperature;BMP_pressure;BME280_temperature;BME280_humidity;BME280_pressure;Samples;Min_cycle;Max_cycle;Signal;HPM_P1;HPM_P2
2023/05/07 00:02:08;;;;;;;9.07;4.53;;;;;;;;;;5119252;28;20222;-87
2023/05/07 00:04:38;;;;;;;4.07;3.63;;;;;;;;;;5119421;28;20215;-87
2023/05/07 00:07:05;;;;;;;6.63;3.97;;;;;;;;;;5119182;28;20220;-87
2023/05/07 00:09:32;;;;;;;3.90;3.60;;;;;;;;;;5119056;28;20206;-88
2023/05/07 00:11:59;;;;;;;6.20;3.43;;;;;;;;;;5119176;28;20207;-88
2023/05/07 00:14:26;;;;;;;7.33;3.60;;;;;;;;;;5118405;27;20290;-88
2023/05/07 00:16:53;;;;;;;4.63;4.23;;;;;;;;;;5101093;28;20206;-88
2023/05/07 00:19:21;;;;;;;5.10;4.20;;;;;;;;;;5117893;28;20305;-88
2023/05/07 00:21:50;;;;;;;4.57;3.97;;;;;;;;;;5118223;27;20207;-88
2023/05/07 00:24:17;;;;;;;4.30;3.90;;;;;;;;;;5119017;28;20214;-87
2023/05/07 00:26:44;;;;;;;6.50;3.70;;;;;;;;;;5100776;28;20260;-87
2023/05/07 00:29:11;;;;;;;4.30;3.50;;;;;;;;;;5089692;28;20742;-87
2023/05/07 00:31:38;;;;;;;4.47;4.07;;;;;;;;;;5104752;28;20259;-87
2023/05/07 00:34:05;;;;;;;4.77;4.27;;;;;;;;;;5106817;28;20298;-87
2023/05/07 00:36:32;;;;;;;7.33;4.37;;;;;;;;;;5117515;28;20588;-88
2023/05/07 00:39:03;;;;;;;5.77;4.23;;;;;;;;;;5090396;28;20259;-89
2023/05/07 00:41:30;;;;;;;4.20;3.77;;;;;;;;;;5118674;27;20214;-88
2023/05/07 00:43:58;;;;;;;7.83;4.63;;;;;;;;;;5100615;28;20703;-87
2023/05/07 00:46:25;;;;;;;6.33;4.70;;;;;;;;;;5100855;28;20363;-87
2023/05/07 00:48:52;;;;;;;5.10;4.63;;;;;;;;;;5118683;28;20234;-87
2023/05/07 00:51:20;;;;;;;4.07;3.67;;;;;;;;;;5117589;27;20214;-87
2023/05/07 00:53:47;;;;;;;4.07;3.53;;;;;;;;;;5118277;28;20222;-88
2023/05/07 00:56:16;;;;;;;4.27;3.87;;;;;;;;;;5116896;28;20218;-87
2023/05/07 00:58:43;;;;;;;4.80;3.87;;;;;;;;;;5104854;28;20222;-88
2023/05/07 01:01:10;;;;;;;4.23;3.83;;;;;;;;;;5095823;28;20207;-88
2023/05/07 01:03:37;;;;;;;5.83;3.37;;;;;;;;;;5104821;28;20674;-87
2023/05/07 01:06:04;;;;;;;15.97;4.27;;;;;;;;;;5110255;28;20235;-88
2023/05/07 01:08:34;;;;;;;4.93;3.90;;;;;;;;;;5106293;28;20272;-88
2023/05/07 01:11:02;;;;;;;3.97;3.50;;;;;;;;;;5084583;28;20688;-88
2023/05/07 01:13:31;;;;;;;3.83;3.53;;;;;;;;;;5114430;28;20766;-87
2023/05/07 01:15:58;;;;;;;3.97;3.67;;;;;;;;;;5115040;28;20718;-88
2023/05/07 01:18:25;;;;;;;4.03;3.73;;;;;;;;;;5102879;28;20199;-87
2023/05/07 01:20:53;;;;;;;3.87;3.57;;;;;;;;;;5110007;28;20637;-88
2023/05/07 01:23:21;;;;;;;7.67;3.67;;;;;;;;;;5096448;28;20269;-87
2023/05/07 01:25:53;;;;;;;3.57;3.27;;;;;;;;;;5115104;28;20227;-87
2023/05/07 01:28:20;;;;;;;4.00;3.60;;;;;;;;;;5096646;28;20203;-88
2023/05/07 01:30:49;;;;;;;4.00;3.53;;;;;;;;;;5102463;28;20216;-89
2023/05/07 01:33:21;;;;;;;4.67;4.00;;;;;;;;;;5114159;28;20649;-88
2023/05/07 01:35:50;;;;;;;4.13;3.73;;;;;;;;;;5114397;28;20299;-88
2023/05/07 01:38:17;;;;;;;4.13;3.80;;;;;;;;;;5096482;28;20231;-88
2023/05/07 01:40:46;;;;;;;5.27;3.67;;;;;;;;;;5114201;28;20275;-87
2023/05/07 01:43:13;;;;;;;4.80;3.90;;;;;;;;;;5113792;28;20272;-88
2023/05/07 01:45:41;;;;;;;4.37;3.87;;;;;;;;;;5079933;28;20231;-88
2023/05/07 01:48:10;;;;;;;4.40;3.47;;;;;;;;;;5109833;28;20574;-88
2023/05/07 01:50:38;;;;;;;5.30;3.97;;;;;;;;;;5097135;28;20688;-87
2023/05/07 01:53:05;;;;;;;4.30;3.90;;;;;;;;;;5096055;28;21984;-88
2023/05/07 01:55:32;;;;;;;3.60;3.30;;;;;;;;;;5105655;28;20252;-89
2023/05/07 01:58:00;;;;;;;5.67;3.80;;;;;;;;;;5114565;28;20646;-87
2023/05/07 02:00:28;;;;;;;6.20;4.00;;;;;;;;;;5105963;28;20219;-88
2023/05/07 02:02:56;;;;;;;10.73;5.00;;;;;;;;;;5082564;28;20295;-88
2023/05/07 02:05:23;;;;;;;6.63;4.90;;;;;;;;;;5113695;28;20227;-88
2023/05/07 02:07:50;;;;;;;4.73;4.33;;;;;;;;;;5113384;28;20261;-88
2023/05/07 02:10:17;;;;;;;6.33;5.30;;;;;;;;;;5112496;28;20199;-88
2023/05/07 02:12:44;;;;;;;5.13;4.53;;;;;;;;;;5108087;28;20217;-88
2023/05/07 02:15:13;;;;;;;5.90;5.03;;;;;;;;;;5095729;28;20205;-87
2023/05/07 02:17:41;;;;;;;9.03;4.97;;;;;;;;;;5079239;28;20602;-88
2023/05/07 02:20:13;;;;;;;7.53;5.50;;;;;;;;;;5113469;28;20211;-88
2023/05/07 02:22:40;;;;;;;6.07;5.20;;;;;;;;;;5113394;28;20207;-88
2023/05/07 02:25:07;;;;;;;5.97;5.00;;;;;;;;;;5112927;28;20223;-88
2023/05/07 02:27:34;;;;;;;4.57;4.17;;;;;;;;;;5106042;28;20284;-88
2023/05/07 02:30:01;;;;;;;5.23;4.57;;;;;;;;;;5095222;28;20215;-87
2023/05/07 02:32:30;;;;;;;6.40;4.87;;;;;;;;;;5085815;28;20266;-88
2023/05/07 02:34:56;;;;;;;5.60;4.93;;;;;;;;;;5105244;28;20215;-88
2023/05/07 02:37:23;;;;;;;5.30;4.80;;;;;;;;;;5111927;28;20268;-87
2023/05/07 02:39:51;;;;;;;5.37;4.87;;;;;;;;;;5081390;28;20256;-88
2023/05/07 02:42:17;;;;;;;6.27;4.80;;;;;;;;;;5111590;28;20241;-88
2023/05/07 02:44:44;;;;;;;5.63;4.63;;;;;;;;;;5111630;28;20207;-88
2023/05/07 02:47:12;;;;;;;4.57;4.23;;;;;;;;;;5104584;28;20235;-88
2023/05/07 02:49:41;;;;;;;6.87;5.40;;;;;;;;;;5112666;28;20273;-88
2023/05/07 02:52:08;;;;;;;6.40;4.93;;;;;;;;;;5104078;28;20207;-88
2023/05/07 02:54:35;;;;;;;4.77;4.37;;;;;;;;;;5095132;28;20215;-88
2023/05/07 02:57:03;;;;;;;7.80;4.67;;;;;;;;;;5095511;28;20215;-87
2023/05/07 02:59:29;;;;;;;5.20;4.80;;;;;;;;;;5111069;28;20674;-87
2023/05/07 03:01:57;;;;;;;6.43;4.20;;;;;;;;;;5103433;28;20203;-87
2023/05/07 03:04:24;;;;;;;5.70;5.10;;;;;;;;;;5112197;28;20697;-87
2023/05/07 03:06:52;;;;;;;18.87;5.43;;;;;;;;;;5077719;28;20228;-86
2023/05/07 03:09:19;;;;;;;6.27;4.27;;;;;;;;;;5087592;28;20208;-87
2023/05/07 03:11:47;;;;;;;4.90;4.40;;;;;;;;;;5105179;28;20539;-87
2023/05/07 03:14:13;;;;;;;6.30;4.50;;;;;;;;;;5108608;28;20213;-87
2023/05/07 03:16:41;;;;;;;6.73;4.50;;;;;;;;;;5093817;28;20233;-87
2023/05/07 03:19:08;;;;;;;4.40;4.07;;;;;;;;;;5112189;28;20741;-87
2023/05/07 03:21:35;;;;;;;7.63;4.77;;;;;;;;;;5093744;28;20205;-87
2023/05/07 03:24:03;;;;;;;7.20;5.17;;;;;;;;;;5112106;28;20268;-87
2023/05/07 03:26:30;;;;;;;6.23;4.50;;;;;;;;;;5111760;27;20714;-87
2023/05/07 03:28:57;;;;;;;5.07;4.57;;;;;;;;;;5088385;28;20207;-86
2023/05/07 03:31:24;;;;;;;6.33;4.93;;;;;;;;;;5112008;28;20215;-87
2023/05/07 03:33:54;;;;;;;5.83;4.70;;;;;;;;;;5112120;28;20216;-87
2023/05/07 03:36:21;;;;;;;7.50;4.63;;;;;;;;;;5093999;28;20207;-86
2023/05/07 03:38:48;;;;;;;7.70;5.03;;;;;;;;;;5104701;28;20224;-87
2023/05/07 03:41:17;;;;;;;5.50;5.00;;;;;;;;;;5112055;28;20663;-86
2023/05/07 03:43:44;;;;;;;5.33;4.83;;;;;;;;;;5111645;28;20213;-86
2023/05/07 03:46:11;;;;;;;6.40;5.80;;;;;;;;;;5082883;28;20305;-86
2023/05/07 03:48:39;;;;;;;5.67;5.17;;;;;;;;;;5111603;28;20200;-86
2023/05/07 03:51:06;;;;;;;7.60;5.53;;;;;;;;;;5111357;28;20335;-87
2023/05/07 03:53:33;;;;;;;7.77;5.50;;;;;;;;;;5112020;28;20268;-86
2023/05/07 03:56:00;;;;;;;5.60;5.20;;;;;;;;;;5093539;28;20203;-86
2023/05/07 03:58:29;;;;;;;8.40;6.10;;;;;;;;;;5093633;28;20214;-85
2023/05/07 04:00:59;;;;;;;8.13;5.23;;;;;;;;;;5109978;28;20212;-85
2023/05/07 04:03:26;;;;;;;8.40;6.37;;;;;;;;;;5111878;28;20260;-87
2023/05/07 04:05:54;;;;;;;6.77;6.17;;;;;;;;;;5100825;28;20223;-88
2023/05/07 04:08:23;;;;;;;6.37;5.77;;;;;;;;;;5097800;28;20200;-87
2023/05/07 04:10:56;;;;;;;9.40;6.47;;;;;;;;;;5110713;28;20210;-86
2023/05/07 04:13:23;;;;;;;8.03;6.10;;;;;;;;;;5111865;28;20207;-87
2023/05/07 04:15:52;;;;;;;6.37;5.77;;;;;;;;;;5111476;28;20196;-88
2023/05/07 04:18:21;;;;;;;9.07;6.80;;;;;;;;;;5111527;28;21298;-87
2023/05/07 04:20:51;;;;;;;10.40;6.90;;;;;;;;;;5115295;28;20207;-88
2023/05/07 04:23:19;;;;;;;6.93;6.30;;;;;;;;;;5111353;28;20211;-88
2023/05/07 04:25:46;;;;;;;6.50;5.90;;;;;;;;;;5111406;28;20231;-88
2023/05/07 04:28:14;;;;;;;7.70;6.90;;;;;;;;;;5111457;28;20217;-87
2023/05/07 04:30:41;;;;;;;7.83;7.03;;;;;;;;;;5113803;28;20685;-87
2023/05/07 04:33:11;;;;;;;6.37;5.70;;;;;;;;;;5113310;28;20205;-86
2023/05/07 04:35:39;;;;;;;8.13;6.90;;;;;;;;;;5114946;28;20294;-87
2023/05/07 04:38:06;;;;;;;7.90;6.60;;;;;;;;;;5107094;28;20207;-84
2023/05/07 04:40:33;;;;;;;8.83;6.23;;;;;;;;;;5113186;28;20276;-87
2023/05/07 04:43:01;;;;;;;9.20;6.47;;;;;;;;;;5115154;28;20207;-87
2023/05/07 04:45:29;;;;;;;7.50;6.60;;;;;;;;;;5115059;28;20212;-87
2023/05/07 04:47:56;;;;;;;6.97;6.30;;;;;;;;;;5114642;28;20204;-87
2023/05/07 04:50:26;;;;;;;8.77;7.50;;;;;;;;;;5104260;28;20208;-86
2023/05/07 04:52:53;;;;;;;7.10;6.07;;;;;;;;;;5099151;28;20214;-87
2023/05/07 04:55:20;;;;;;;7.53;6.13;;;;;;;;;;5114752;28;20212;-86
2023/05/07 04:57:50;;;;;;;10.60;6.57;;;;;;;;;;5120479;28;20215;-84
2023/05/07 05:00:19;;;;;;;9.27;6.37;;;;;;;;;;5115836;28;20200;-87
2023/05/07 05:02:46;;;;;;;7.00;6.30;;;;;;;;;;5114336;28;20219;-87
2023/05/07 05:05:14;;;;;;;10.07;6.00;;;;;;;;;;5114210;28;20210;-87
2023/05/07 05:07:42;;;;;;;8.10;6.93;;;;;;;;;;5113564;28;20785;-87
2023/05/07 05:10:10;;;;;;;6.13;5.53;;;;;;;;;;5096063;28;20739;-87
2023/05/07 05:12:38;;;;;;;6.83;5.40;;;;;;;;;;5113961;28;20207;-88
2023/05/07 05:15:06;;;;;;;8.70;5.47;;;;;;;;;;5106610;28;20276;-88
2023/05/07 05:20:16;;;;;;;6.73;5.80;;;;;;;;;;5117095;28;20217;-87
2023/05/07 05:22:47;;;;;;;6.17;4.63;;;;;;;;;;5114924;28;20271;-89
2023/05/07 05:25:14;;;;;;;7.40;6.23;;;;;;;;;;5095429;28;20220;-88
2023/05/07 05:27:41;;;;;;;8.27;5.00;;;;;;;;;;5113784;28;20231;-86
2023/05/07 05:30:11;;;;;;;7.70;5.73;;;;;;;;;;5113851;28;20214;-87
2023/05/07 05:32:38;;;;;;;4.97;4.57;;;;;;;;;;5113703;28;20211;-87
2023/05/07 05:35:06;;;;;;;7.10;5.40;;;;;;;;;;5112393;28;20589;-86
2023/05/07 05:37:34;;;;;;;5.27;4.77;;;;;;;;;;5095797;28;20689;-87
2023/05/07 05:40:04;;;;;;;5.67;5.10;;;;;;;;;;5114053;28;20234;-87
2023/05/07 05:42:32;;;;;;;4.77;3.97;;;;;;;;;;5114007;28;20276;-88
2023/05/07 05:45:00;;;;;;;6.07;5.47;;;;;;;;;;5113496;28;20757;-89
2023/05/07 05:47:27;;;;;;;5.97;5.07;;;;;;;;;;5113636;28;20647;-85
2023/05/07 05:49:54;;;;;;;7.50;4.90;;;;;;;;;;5113573;28;20203;-86
2023/05/07 05:52:23;;;;;;;7.07;5.03;;;;;;;;;;5113306;28;20230;-86
2023/05/07 05:54:50;;;;;;;6.50;5.30;;;;;;;;;;5099796;28;20218;-85
2023/05/07 05:57:21;;;;;;;5.53;4.83;;;;;;;;;;5095924;28;20260;-84
2023/05/07 05:59:49;;;;;;;4.83;4.33;;;;;;;;;;5113651;28;20584;-85
2023/05/07 06:02:16;;;;;;;4.40;4.00;;;;;;;;;;5095536;28;20199;-85
2023/05/07 06:04:46;;;;;;;4.83;4.43;;;;;;;;;;5107545;28;20211;-85
2023/05/07 06:07:14;;;;;;;5.17;4.43;;;;;;;;;;5113091;28;20319;-85
2023/05/07 06:09:41;;;;;;;3.80;3.40;;;;;;;;;;5113172;28;20208;-85
2023/05/07 06:12:09;;;;;;;3.77;3.47;;;;;;;;;;5098792;28;20216;-86
2023/05/07 06:14:38;;;;;;;5.73;3.83;;;;;;;;;;5113385;28;20207;-86
2023/05/07 06:17:08;;;;;;;4.97;4.50;;;;;;;;;;5097602;28;20215;-86
2023/05/07 06:19:35;;;;;;;7.13;3.87;;;;;;;;;;5121747;27;20218;-86
2023/05/07 06:22:02;;;;;;;4.63;3.23;;;;;;;;;;5112641;28;20211;-86
2023/05/07 06:24:30;;;;;;;6.83;3.10;;;;;;;;;;5096640;28;20252;-86
2023/05/07 06:26:58;;;;;;;7.87;3.43;;;;;;;;;;5095204;28;20234;-86
2023/05/07 06:29:25;;;;;;;7.70;3.50;;;;;;;;;;5112766;28;20300;-86
2023/05/07 06:31:54;;;;;;;3.57;2.90;;;;;;;;;;5109886;28;20673;-86
2023/05/07 06:34:24;;;;;;;2.37;2.20;;;;;;;;;;5087998;28;20251;-86
2023/05/07 06:36:52;;;;;;;5.03;2.63;;;;;;;;;;5112720;28;20209;-86
2023/05/07 06:39:19;;;;;;;2.70;2.27;;;;;;;;;;5095296;28;20260;-87
2023/05/07 06:41:47;;;;;;;4.43;2.30;;;;;;;;;;5100615;28;20740;-87
2023/05/07 06:44:14;;;;;;;2.70;2.50;;;;;;;;;;5112493;27;20206;-87
2023/05/07 06:46:44;;;;;;;3.00;2.57;;;;;;;;;;5094917;28;20223;-89
2023/05/07 06:49:14;;;;;;;4.13;2.43;;;;;;;;;;5094946;28;20293;-90
2023/05/07 06:51:42;;;;;;;2.60;2.40;;;;;;;;;;5112066;28;20213;-88
2023/05/07 06:54:10;;;;;;;6.03;3.87;;;;;;;;;;5113103;28;20206;-90
2023/05/07 06:56:43;;;;;;;2.67;2.47;;;;;;;;;;5112312;27;20667;-87
2023/05/07 06:59:12;;;;;;;9.50;5.97;;;;;;;;;;5095018;28;20709;-88
2023/05/07 07:01:41;;;;;;;38.10;23.97;;;;;;;;;;5113055;28;20819;-89
2023/05/07 07:04:09;;;;;;;9.20;8.40;;;;;;;;;;5095264;28;20222;-87
2023/05/07 07:06:38;;;;;;;6.53;6.10;;;;;;;;;;5098987;28;20720;-89
2023/05/07 07:09:06;;;;;;;7.90;6.30;;;;;;;;;;5100619;28;20659;-88
2023/05/07 07:11:34;;;;;;;2.80;2.60;;;;;;;;;;5100816;28;20210;-88
2023/05/07 07:14:02;;;;;;;5.83;5.33;;;;;;;;;;5112416;28;20199;-88
2023/05/07 07:16:30;;;;;;;7.40;2.33;;;;;;;;;;5101810;28;20207;-88
2023/05/07 07:18:57;;;;;;;3.77;1.90;;;;;;;;;;5112516;28;20211;-88
2023/05/07 07:21:30;;;;;;;4.67;2.13;;;;;;;;;;5111603;28;20244;-88
2023/05/07 07:24:00;;;;;;;4.00;2.37;;;;;;;;;;5108872;28;20210;-88
2023/05/07 07:26:28;;;;;;;5.93;5.10;;;;;;;;;;5112176;28;20207;-88
2023/05/07 07:28:56;;;;;;;21.13;19.23;;;;;;;;;;5112310;28;20214;-88
2023/05/07 07:31:24;;;;;;;40.70;30.00;;;;;;;;;;5111909;28;20674;-88
2023/05/07 07:33:51;;;;;;;2.80;2.60;;;;;;;;;;5112125;28;20202;-88
2023/05/07 07:36:21;;;;;;;7.43;5.13;;;;;;;;;;5094567;28;20234;-88
2023/05/07 07:38:49;;;;;;;5.20;4.73;;;;;;;;;;5112139;28;20231;-88
2023/05/07 07:41:18;;;;;;;5.53;5.03;;;;;;;;;;5112021;28;20276;-88
2023/05/07 07:43:46;;;;;;;3.43;2.87;;;;;;;;;;5112804;28;20203;-88
2023/05/07 07:46:14;;;;;;;4.17;3.07;;;;;;;;;;5087786;28;20290;-89
2023/05/07 07:48:42;;;;;;;3.90;3.30;;;;;;;;;;5112181;28;20223;-87
2023/05/07 07:51:11;;;;;;;4.87;3.30;;;;;;;;;;5111554;28;20665;-85
2023/05/07 07:53:39;;;;;;;6.57;2.60;;;;;;;;;;5111842;28;20207;-84
2023/05/07 07:56:07;;;;;;;5.27;3.83;;;;;;;;;;5111297;28;20208;-92
2023/05/07 07:58:37;;;;;;;2.70;2.20;;;;;;;;;;5112808;28;20264;-95
2023/05/07 08:01:06;;;;;;;3.77;3.13;;;;;;;;;;5113602;28;20283;-94
2023/05/07 08:03:35;;;;;;;2.50;2.30;;;;;;;;;;5113241;28;20199;-96
2023/05/07 08:06:08;;;;;;;2.33;2.10;;;;;;;;;;5112081;28;20294;-95
2023/05/07 08:08:35;;;;;;;2.47;2.20;;;;;;;;;;5099360;28;20231;-96
2023/05/07 08:11:05;;;;;;;5.17;3.77;;;;;;;;;;5116055;28;20219;-96
2023/05/07 08:13:32;;;;;;;6.50;5.83;;;;;;;;;;5101829;28;20682;-95
2023/05/07 08:16:01;;;;;;;5.47;3.67;;;;;;;;;;5095135;28;20249;-96
2023/05/07 08:18:28;;;;;;;7.53;4.27;;;;;;;;;;5116379;28;20215;-96
2023/05/07 08:20:57;;;;;;;2.87;2.67;;;;;;;;;;5084104;28;20290;-95
2023/05/07 08:23:24;;;;;;;4.30;3.90;;;;;;;;;;5115868;28;20211;-96
2023/05/07 08:25:52;;;;;;;2.77;2.33;;;;;;;;;;5114818;28;20216;-95
2023/05/07 08:28:19;;;;;;;4.63;3.73;;;;;;;;;;5115504;28;20223;-95
2023/05/07 08:30:46;;;;;;;3.60;3.30;;;;;;;;;;5115644;28;20206;-96
2023/05/07 08:33:15;;;;;;;2.57;2.37;;;;;;;;;;5115647;28;20218;-95
2023/05/07 08:35:42;;;;;;;9.57;6.33;;;;;;;;;;5115473;28;20196;-95
2023/05/07 08:38:09;;;;;;;11.67;7.50;;;;;;;;;;5106354;28;20212;-95
2023/05/07 08:40:40;;;;;;;6.67;3.97;;;;;;;;;;5100423;28;20207;-95
2023/05/07 08:43:08;;;;;;;18.73;11.00;;;;;;;;;;5115992;28;20210;-96
2023/05/07 08:45:36;;;;;;;7.50;6.10;;;;;;;;;;5115823;28;20207;-94
2023/05/07 08:48:04;;;;;;;23.07;16.13;;;;;;;;;;5114810;28;20271;-95
2023/05/07 08:50:33;;;;;;;11.77;8.37;;;;;;;;;;5114531;28;20267;-95
2023/05/07 08:53:01;;;;;;;27.30;16.27;;;;;;;;;;5130166;27;20235;-94
2023/05/07 08:55:29;;;;;;;7.40;4.47;;;;;;;;;;5098346;28;20238;-96
2023/05/07 08:57:56;;;;;;;17.97;11.23;;;;;;;;;;5115274;28;20211;-95
2023/05/07 09:00:23;;;;;;;2.80;2.10;;;;;;;;;;5116107;28;20268;-96
2023/05/07 09:02:50;;;;;;;3.17;1.70;;;;;;;;;;5116031;28;20206;-95
2023/05/07 09:05:17;;;;;;;5.73;3.10;;;;;;;;;;5115916;28;20260;-93
2023/05/07 09:07:46;;;;;;;5.63;3.07;;;;;;;;;;5115761;28;20610;-95
2023/05/07 09:10:14;;;;;;;3.37;2.60;;;;;;;;;;5115764;28;20286;-95
2023/05/07 09:12:40;;;;;;;2.37;2.17;;;;;;;;;;5115726;28;20573;-95
2023/05/07 09:15:08;;;;;;;6.53;4.33;;;;;;;;;;5115656;28;20264;-96
2023/05/07 09:17:54;;;;;;;5.70;1.93;;;;;;;;;;5107096;28;20226;-93
2023/05/07 09:20:21;;;;;;;2.67;2.27;;;;;;;;;;5114727;28;20226;-86
2023/05/07 09:22:51;;;;;;;5.60;2.70;;;;;;;;;;5114476;28;20210;-85
2023/05/07 09:25:29;;;;;;;2.70;1.90;;;;;;;;;;5115067;28;20211;-86
2023/05/07 09:27:56;;;;;;;4.40;1.97;;;;;;;;;;5113997;28;20227;-84
2023/05/07 09:30:23;;;;;;;2.00;1.70;;;;;;;;;;5113770;28;20758;-86
2023/05/07 09:32:51;;;;;;;1.90;1.80;;;;;;;;;;5113866;28;20196;-83
2023/05/07 09:35:21;;;;;;;3.13;1.60;;;;;;;;;;5113670;28;20203;-82
2023/05/07 09:37:49;;;;;;;2.50;2.30;;;;;;;;;;5113645;28;20207;-83
2023/05/07 09:40:22;;;;;;;5.63;2.10;;;;;;;;;;5113365;28;20196;-84
2023/05/07 09:42:49;;;;;;;2.13;1.83;;;;;;;;;;5113737;28;20286;-82
2023/05/07 09:45:16;;;;;;;6.47;1.90;;;;;;;;;;5113728;28;20225;-87
2023/05/07 09:47:45;;;;;;;3.07;1.70;;;;;;;;;;5113086;28;20219;-83
2023/05/07 09:50:14;;;;;;;2.10;1.90;;;;;;;;;;5113146;28;20298;-85
2023/05/07 09:52:41;;;;;;;2.00;1.77;;;;;;;;;;5113399;28;20206;-83
2023/05/07 09:55:10;;;;;;;4.60;4.20;;;;;;;;;;5113467;28;20734;-84
2023/05/07 09:57:37;;;;;;;1.97;1.87;;;;;;;;;;5113671;28;20211;-83
2023/05/07 10:00:05;;;;;;;2.20;2.00;;;;;;;;;;5113666;28;20210;-83
2023/05/07 10:02:32;;;;;;;3.57;1.73;;;;;;;;;;5113449;28;20215;-83
2023/05/07 10:05:01;;;;;;;1.90;1.80;;;;;;;;;;5113670;28;20204;-83
2023/05/07 10:07:28;;;;;;;2.43;1.93;;;;;;;;;;5113473;28;20611;-83
2023/05/07 10:09:56;;;;;;;2.03;1.83;;;;;;;;;;5113304;28;20214;-83
2023/05/07 10:12:24;;;;;;;2.40;2.20;;;;;;;;;;5113271;28;20207;-83
2023/05/07 10:14:51;;;;;;;1.90;1.80;;;;;;;;;;5113286;28;20268;-84
2023/05/07 10:17:18;;;;;;;5.43;3.90;;;;;;;;;;5112641;28;20203;-82
2023/05/07 10:19:46;;;;;;;4.13;2.30;;;;;;;;;;5113400;28;20272;-83
2023/05/07 10:22:14;;;;;;;4.17;2.93;;;;;;;;;;5112915;28;20210;-83
2023/05/07 10:24:42;;;;;;;5.73;5.23;;;;;;;;;;5112752;28;20210;-84
2023/05/07 10:27:11;;;;;;;2.77;2.57;;;;;;;;;;5113165;28;20211;-83
2023/05/07 10:29:46;;;;;;;6.53;2.00;;;;;;;;;;5112149;28;20235;-84
2023/05/07 10:32:31;;;;;;;1.63;1.50;;;;;;;;;;5113087;28;20199;-79
2023/05/07 10:35:01;;;;;;;1.70;1.60;;;;;;;;;;5113014;28;20191;-79
2023/05/07 10:37:28;;;;;;;8.47;7.67;;;;;;;;;;5112627;28;20203;-79
2023/05/07 10:39:54;;;;;;;4.97;3.10;;;;;;;;;;5112180;28;20654;-79
2023/05/07 10:42:21;;;;;;;3.23;3.03;;;;;;;;;;5112471;28;20210;-80
2023/05/07 10:44:52;;;;;;;2.70;2.03;;;;;;;;;;5112010;27;20203;-82
2023/05/07 10:47:19;;;;;;;5.73;3.77;;;;;;;;;;5112364;28;20210;-84
2023/05/07 10:50:24;;;;;;;7.10;3.40;;;;;;;;;;5112564;28;20308;-82
2023/05/07 10:53:24;;;;;;;7.17;3.87;;;;;;;;;;5112311;28;20207;-83
2023/05/07 10:55:52;;;;;;;1.97;1.87;;;;;;;;;;5112393;28;20661;-80
2023/05/07 10:58:26;;;;;;;4.47;3.27;;;;;;;;;;5112391;28;20242;-86
2023/05/07 11:00:57;;;;;;;2.67;2.47;;;;;;;;;;5111964;28;20196;-81
2023/05/07 11:03:24;;;;;;;2.90;2.70;;;;;;;;;;5111767;28;20228;-81
2023/05/07 11:06:10;;;;;;;4.00;2.97;;;;;;;;;;5112208;28;20248;-80
2023/05/07 11:08:57;;;;;;;2.27;1.73;;;;;;;;;;5111854;28;20221;-79
2023/05/07 11:11:45;;;;;;;1.63;1.53;;;;;;;;;;5094870;28;20207;-80
2023/05/07 11:14:12;;;;;;;3.70;2.80;;;;;;;;;;5092809;28;20203;-81
2023/05/07 11:16:41;;;;;;;3.60;2.73;;;;;;;;;;5111917;28;20192;-82
2023/05/07 11:19:08;;;;;;;3.33;2.87;;;;;;;;;;5111789;28;20734;-79
2023/05/07 11:21:36;;;;;;;4.17;3.67;;;;;;;;;;5111465;28;20203;-83
2023/05/07 11:24:03;;;;;;;3.20;1.57;;;;;;;;;;5112099;28;20595;-81
2023/05/07 11:26:31;;;;;;;3.30;1.83;;;;;;;;;;5111967;28;20207;-79
2023/05/07 11:29:01;;;;;;;2.47;1.80;;;;;;;;;;5111765;28;20262;-82
2023/05/07 11:31:29;;;;;;;3.37;2.40;;;;;;;;;;5111269;28;20674;-82
2023/05/07 11:33:58;;;;;;;1.97;1.87;;;;;;;;;;5111305;28;20199;-82
2023/05/07 11:36:25;;;;;;;2.27;2.00;;;;;;;;;;5111489;28;20690;-82
2023/05/07 11:38:52;;;;;;;1.83;1.73;;;;;;;;;;5111349;28;20238;-83
2023/05/07 11:41:20;;;;;;;2.07;1.87;;;;;;;;;;5111120;28;20211;-83
2023/05/07 11:43:58;;;;;;;2.57;2.37;;;;;;;;;;5111917;28;20199;-84
2023/05/07 11:46:24;;;;;;;4.13;1.77;;;;;;;;;;5111658;28;20214;-84
2023/05/07 11:48:51;;;;;;;2.00;1.80;;;;;;;;;;5111791;28;20364;-87
2023/05/07 11:51:25;;;;;;;4.97;2.20;;;;;;;;;;5111903;28;20207;-84
2023/05/07 11:53:53;;;;;;;4.57;2.10;;;;;;;;;;5111807;28;20200;-85
2023/05/07 11:56:19;;;;;;;1.90;1.80;;;;;;;;;;5111079;28;20214;-84
2023/05/07 11:58:48;;;;;;;4.03;2.10;;;;;;;;;;5106713;28;20265;-83
2023/05/07 12:01:16;;;;;;;2.03;1.83;;;;;;;;;;5111330;28;20246;-83
2023/05/07 12:03:46;;;;;;;2.77;2.00;;;;;;;;;;5111544;28;20219;-83
2023/05/07 12:06:14;;;;;;;1.97;1.83;;;;;;;;;;5111522;28;20247;-83
2023/05/07 12:08:44;;;;;;;2.10;1.90;;;;;;;;;;5111106;28;20231;-83
2023/05/07 12:11:14;;;;;;;4.73;2.37;;;;;;;;;;5111128;28;20204;-84
2023/05/07 12:13:41;;;;;;;2.80;2.07;;;;;;;;;;5111253;28;20212;-84
2023/05/07 12:16:08;;;;;;;1.40;1.30;;;;;;;;;;5111351;28;20203;-84
2023/05/07 12:18:36;;;;;;;12.20;5.00;;;;;;;;;;5098767;28;20629;-84
2023/05/07 12:21:03;;;;;;;4.10;2.87;;;;;;;;;;5110505;28;20208;-84
2023/05/07 12:23:31;;;;;;;1.93;1.80;;;;;;;;;;5111133;28;20209;-84
2023/05/07 12:26:00;;;;;;;3.33;2.23;;;;;;;;;;5110925;28;20199;-84
2023/05/07 12:28:27;;;;;;;3.73;1.80;;;;;;;;;;5111301;28;20231;-84
2023/05/07 12:30:53;;;;;;;4.33;2.13;;;;;;;;;;5097873;28;20276;-85
2023/05/07 12:33:25;;;;;;;4.43;3.10;;;;;;;;;;5111318;28;20200;-85
2023/05/07 12:35:54;;;;;;;3.13;1.93;;;;;;;;;;5110921;28;20212;-85
2023/05/07 12:38:21;;;;;;;2.10;1.80;;;;;;;;;;5111015;28;20680;-83
2023/05/07 12:40:50;;;;;;;3.97;2.30;;;;;;;;;;5110901;28;20204;-83
2023/05/07 12:43:19;;;;;;;1.97;1.63;;;;;;;;;;5110734;28;20207;-83
2023/05/07 12:45:47;;;;;;;1.50;1.40;;;;;;;;;;5111279;28;20203;-84
2023/05/07 12:48:15;;;;;;;2.50;2.20;;;;;;;;;;5110559;28;20222;-83
2023/05/07 12:50:41;;;;;;;5.77;2.30;;;;;;;;;;5111283;28;20626;-84
2023/05/07 12:53:10;;;;;;;8.00;2.23;;;;;;;;;;5111597;28;20207;-83
2023/05/07 12:55:45;;;;;;;2.73;1.87;;;;;;;;;;5114696;28;20591;-83
2023/05/07 12:58:20;;;;;;;4.20;1.97;;;;;;;;;;5094225;28;20208;-84
2023/05/07 13:00:49;;;;;;;1.90;1.80;;;;;;;;;;5110261;28;20271;-83
2023/05/07 13:03:23;;;;;;;6.90;2.03;;;;;;;;;;5114631;28;20207;-83
2023/05/07 13:05:53;;;;;;;3.40;2.17;;;;;;;;;;5114098;28;20291;-83
2023/05/07 13:08:30;;;;;;;2.20;2.00;;;;;;;;;;5114345;28;20203;-84
2023/05/07 13:10:58;;;;;;;2.30;1.80;;;;;;;;;;5113946;28;20210;-84
2023/05/07 13:13:26;;;;;;;1.90;1.80;;;;;;;;;;5114574;28;20354;-83
2023/05/07 13:15:53;;;;;;;3.47;1.87;;;;;;;;;;5114163;28;20268;-83
2023/05/07 13:18:20;;;;;;;2.67;2.47;;;;;;;;;;5113791;28;20203;-85
2023/05/07 13:20:47;;;;;;;2.13;2.03;;;;;;;;;;5100652;28;20203;-83
2023/05/07 13:23:13;;;;;;;4.40;1.73;;;;;;;;;;5114211;28;20215;-84
2023/05/07 13:25:41;;;;;;;5.47;2.37;;;;;;;;;;5113677;28;20210;-83
2023/05/07 13:28:07;;;;;;;3.73;2.10;;;;;;;;;;5113587;28;20207;-83
2023/05/07 13:30:36;;;;;;;3.17;1.83;;;;;;;;;;5113711;28;20223;-84
2023/05/07 13:33:03;;;;;;;1.77;1.67;;;;;;;;;;5113866;28;20302;-83
2023/05/07 13:35:30;;;;;;;7.73;1.93;;;;;;;;;;5113765;28;20647;-84
2023/05/07 13:37:56;;;;;;;1.93;1.80;;;;;;;;;;5113886;28;20227;-83
2023/05/07 13:40:23;;;;;;;2.63;1.80;;;;;;;;;;5113629;28;20195;-83
2023/05/07 13:42:50;;;;;;;1.90;1.77;;;;;;;;;;5113824;28;20200;-84
2023/05/07 13:45:17;;;;;;;1.90;1.80;;;;;;;;;;5113320;28;21117;-83
2023/05/07 13:47:49;;;;;;;1.87;1.77;;;;;;;;;;5113742;28;20203;-83
2023/05/07 13:50:16;;;;;;;2.70;1.70;;;;;;;;;;5113258;28;20231;-84
2023/05/07 13:52:50;;;;;;;2.43;2.23;;;;;;;;;;5113324;28;20680;-85
2023/05/07 13:55:17;;;;;;;3.17;1.87;;;;;;;;;;5113075;28;20206;-84
2023/05/07 13:57:43;;;;;;;1.50;1.40;;;;;;;;;;5112767;28;20307;-83
2023/05/07 14:00:11;;;;;;;2.70;2.50;;;;;;;;;;5113278;28;20203;-84
2023/05/07 14:02:40;;;;;;;2.17;1.97;;;;;;;;;;5113148;28;20196;-83
2023/05/07 14:05:10;;;;;;;2.30;1.70;;;;;;;;;;5113535;28;20203;-83
2023/05/07 14:07:36;;;;;;;2.07;1.87;;;;;;;;;;5113487;28;20207;-83
2023/05/07 14:10:04;;;;;;;4.37;1.70;;;;;;;;;;5113045;28;20227;-83
2023/05/07 14:12:30;;;;;;;3.50;1.90;;;;;;;;;;5128565;27;20219;-84
2023/05/07 14:14:57;;;;;;;4.43;1.80;;;;;;;;;;5113294;28;20260;-83
2023/05/07 14:17:26;;;;;;;3.47;1.50;;;;;;;;;;5113289;28;20236;-84
2023/05/07 14:19:53;;;;;;;2.37;1.80;;;;;;;;;;5113037;28;20213;-83
2023/05/07 14:22:21;;;;;;;1.67;1.57;;;;;;;;;;5113126;28;20589;-84
2023/05/07 14:24:51;;;;;;;1.83;1.67;;;;;;;;;;5112864;28;20203;-81
2023/05/07 14:27:18;;;;;;;1.77;1.67;;;;;;;;;;5100237;28;20272;-81
2023/05/07 14:29:45;;;;;;;3.07;1.97;;;;;;;;;;5112406;28;20227;-82
2023/05/07 14:32:12;;;;;;;2.57;2.37;;;;;;;;;;5112708;28;20294;-81
2023/05/07 14:34:39;;;;;;;2.20;1.63;;;;;;;;;;5112379;28;20272;-83
2023/05/07 14:37:05;;;;;;;2.00;1.80;;;;;;;;;;5112497;28;20203;-82
2023/05/07 14:39:33;;;;;;;1.77;1.67;;;;;;;;;;5112357;28;20231;-82
2023/05/07 14:42:00;;;;;;;2.43;2.10;;;;;;;;;;5112350;28;20211;-81
2023/05/07 14:44:28;;;;;;;4.10;2.00;;;;;;;;;;5112294;28;20203;-82
2023/05/07 14:46:56;;;;;;;2.80;1.57;;;;;;;;;;5112585;28;20639;-81
2023/05/07 14:49:23;;;;;;;2.10;1.90;;;;;;;;;;5112001;28;20227;-81
2023/05/07 14:51:50;;;;;;;5.97;2.17;;;;;;;;;;5112701;28;20665;-81
2023/05/07 14:54:16;;;;;;;4.30;1.80;;;;;;;;;;5111898;28;20203;-82